createdAt,value
2017-05-29T00:01:10.695Z,11.16
2017-05-29T00:03:37.645Z,10.78
2017-05-29T00:06:04.619Z,9.88
2017-05-29T00:08:31.586Z,12.24
2017-05-29T00:10:58.557Z,10.18
2017-05-29T00:13:25.507Z,10.56
2017-05-29T00:15:52.490Z,9.98
2017-05-29T00:18:19.438Z,10.08
2017-05-29T00:20:46.413Z,10.14
2017-05-29T00:23:13.351Z,9.46
2017-05-29T00:25:40.294Z,10.54
2017-05-29T00:28:07.268Z,10.70
2017-05-29T00:30:34.216Z,10.82
2017-05-29T00:33:01.192Z,10.24
2017-05-29T00:35:28.131Z,9.96
2017-05-29T00:37:55.098Z,10.04
2017-05-29T00:40:22.042Z,11.04
2017-05-29T00:42:49.013Z,10.90
2017-05-29T00:45:15.958Z,11.58
2017-05-29T00:47:42.923Z,11.72
2017-05-29T00:50:09.871Z,9.92
2017-05-29T00:52:37.265Z,9.86
2017-05-29T00:55:04.218Z,13.88
2017-05-29T00:57:31.167Z,9.64
2017-05-29T00:59:58.137Z,10.92
2017-05-29T01:02:25.085Z,10.64
2017-05-29T01:04:52.052Z,11.22
2017-05-29T01:07:18.994Z,10.34
2017-05-29T01:09:45.993Z,11.26
2017-05-29T01:12:12.951Z,11.50
2017-05-29T01:14:39.938Z,10.62
2017-05-29T01:17:06.883Z,12.16
2017-05-29T01:19:33.893Z,11.56
2017-05-29T01:22:00.855Z,11.06
2017-05-29T01:24:27.808Z,11.58
2017-05-29T01:26:54.786Z,11.02
2017-05-29T01:29:21.726Z,10.88
2017-05-29T01:31:48.719Z,11.26
2017-05-29T01:34:15.685Z,11.80
2017-05-29T01:36:42.660Z,12.38
2017-05-29T01:39:10.226Z,10.38
2017-05-29T01:41:37.208Z,10.66
2017-05-29T01:44:04.184Z,11.52
2017-05-29T01:46:31.244Z,11.08
2017-05-29T01:48:58.202Z,11.56
2017-05-29T01:51:25.179Z,12.06
2017-05-29T01:53:52.150Z,10.86
2017-05-29T01:56:19.104Z,13.48
2017-05-29T01:58:46.165Z,12.40
2017-05-29T02:01:13.120Z,10.36
2017-05-29T02:03:40.097Z,11.36
2017-05-29T02:06:07.053Z,10.88
2017-05-29T02:08:34.043Z,11.44
2017-05-29T02:11:01.042Z,11.78
2017-05-29T02:13:34.931Z,11.26
2017-05-29T02:16:01.873Z,11.40
2017-05-29T02:18:28.919Z,11.42
2017-05-29T02:20:55.861Z,11.74
2017-05-29T02:23:22.810Z,12.40
2017-05-29T02:25:49.782Z,10.38
2017-05-29T02:28:16.733Z,11.72
2017-05-29T02:30:43.706Z,14.06
2017-05-29T02:33:10.661Z,11.50
2017-05-29T02:35:37.622Z,12.48
2017-05-29T02:38:04.698Z,11.74
2017-05-29T02:40:31.679Z,11.62
2017-05-29T02:42:58.629Z,12.02
2017-05-29T02:45:25.604Z,13.48
2017-05-29T02:47:52.558Z,11.88
2017-05-29T02:50:19.550Z,12.28
2017-05-29T02:52:46.499Z,13.14
2017-05-29T02:55:13.480Z,10.90
2017-05-29T02:57:40.439Z,12.34
2017-05-29T03:00:07.392Z,11.96
2017-05-29T03:02:34.371Z,12.20
2017-05-29T03:05:01.324Z,11.34
2017-05-29T03:07:28.297Z,11.56
2017-05-29T03:09:55.273Z,11.54
2017-05-29T03:12:22.233Z,11.56
2017-05-29T03:14:49.181Z,11.58
2017-05-29T03:17:16.157Z,11.26
2017-05-29T03:19:43.133Z,11.28
2017-05-29T03:22:10.100Z,11.12
2017-05-29T03:24:37.038Z,11.58
2017-05-29T03:27:03.986Z,12.30
2017-05-29T03:29:30.953Z,11.52
2017-05-29T03:31:58.343Z,12.56
2017-05-29T03:34:25.316Z,11.50
2017-05-29T03:36:52.274Z,11.80
2017-05-29T03:39:19.258Z,13.46
2017-05-29T03:41:46.192Z,12.84
2017-05-29T03:44:20.309Z,12.92
2017-05-29T03:46:47.558Z,11.46
2017-05-29T03:49:14.524Z,11.50
2017-05-29T03:51:41.477Z,12.28
2017-05-29T03:54:08.449Z,10.70
2017-05-29T03:56:35.403Z,12.18
2017-05-29T03:59:02.350Z,12.08
2017-05-29T04:01:29.320Z,11.10
2017-05-29T04:03:56.273Z,12.98
2017-05-29T04:06:23.242Z,12.24
2017-05-29T04:08:50.221Z,12.76
2017-05-29T04:11:17.190Z,13.86
2017-05-29T04:13:44.144Z,12.50
2017-05-29T04:16:11.108Z,11.22
2017-05-29T04:18:38.056Z,11.58
2017-05-29T04:21:05.033Z,11.98
2017-05-29T04:23:31.977Z,11.66
2017-05-29T04:25:58.960Z,12.02
2017-05-29T04:28:25.897Z,11.82
2017-05-29T04:30:52.834Z,11.78
2017-05-29T04:33:19.797Z,12.00
2017-05-29T04:35:46.737Z,12.24
2017-05-29T04:38:13.712Z,12.04
2017-05-29T04:40:40.660Z,11.92
2017-05-29T04:43:07.636Z,12.44
2017-05-29T04:45:34.590Z,12.76
2017-05-29T04:48:01.561Z,11.86
2017-05-29T04:50:28.502Z,12.62
2017-05-29T04:52:55.472Z,12.36
2017-05-29T04:55:22.785Z,11.88
2017-05-29T04:57:49.753Z,11.60
2017-05-29T05:00:17.212Z,12.50
2017-05-29T05:02:44.165Z,12.20
2017-05-29T05:05:11.137Z,12.64
2017-05-29T05:07:38.081Z,13.04
2017-05-29T05:10:05.079Z,12.12
2017-05-29T05:12:32.020Z,11.58
2017-05-29T05:14:58.990Z,12.60
2017-05-29T05:17:25.937Z,13.22
2017-05-29T05:19:52.914Z,11.94
2017-05-29T05:22:19.861Z,11.84
2017-05-29T05:24:46.826Z,12.44
2017-05-29T05:27:14.262Z,12.98
2017-05-29T05:29:41.203Z,16.28
2017-05-29T05:32:08.176Z,12.82
2017-05-29T05:34:35.122Z,13.92
2017-05-29T05:37:02.096Z,12.32
2017-05-29T05:39:29.048Z,12.18
2017-05-29T05:41:56.017Z,12.84
2017-05-29T05:44:22.973Z,12.16
2017-05-29T05:46:50.377Z,12.72
2017-05-29T05:49:17.327Z,12.32
2017-05-29T05:51:44.301Z,12.86
2017-05-29T05:54:11.235Z,12.44
2017-05-29T05:56:38.192Z,12.00
2017-05-29T05:59:05.165Z,12.12
2017-05-29T06:01:32.158Z,12.46
2017-05-29T06:03:59.125Z,11.64
2017-05-29T06:06:26.077Z,12.78
2017-05-29T06:08:53.067Z,10.22
2017-05-29T06:11:20.077Z,11.12
2017-05-29T06:13:47.042Z,10.92
2017-05-29T06:16:14.003Z,10.28
2017-05-29T06:18:40.995Z,11.74
2017-05-29T06:21:07.947Z,11.84
2017-05-29T06:23:34.933Z,10.96
2017-05-29T06:26:01.876Z,10.42
2017-05-29T06:28:28.850Z,10.96
2017-05-29T06:30:55.798Z,9.02
2017-05-29T06:33:22.761Z,11.02
2017-05-29T06:35:49.711Z,10.50
2017-05-29T06:38:16.671Z,9.88
2017-05-29T06:40:43.620Z,11.14
2017-05-29T06:43:10.595Z,10.06
2017-05-29T06:45:37.543Z,9.56
2017-05-29T06:48:04.505Z,9.26
2017-05-29T06:50:32.033Z,10.30
2017-05-29T06:52:58.977Z,10.44
2017-05-29T06:55:25.947Z,10.34
2017-05-29T06:57:52.895Z,9.02
2017-05-29T07:00:19.860Z,9.50
2017-05-29T07:02:46.809Z,11.88
2017-05-29T07:05:13.779Z,9.46
2017-05-29T07:07:40.728Z,9.96
2017-05-29T07:10:07.740Z,9.30
2017-05-29T07:12:34.686Z,10.06
2017-05-29T07:15:01.630Z,9.48
2017-05-29T07:17:28.597Z,9.82
2017-05-29T07:19:55.537Z,11.30
2017-05-29T07:22:22.504Z,10.04
2017-05-29T07:24:49.454Z,12.54
2017-05-29T07:27:16.421Z,9.22
2017-05-29T07:29:43.370Z,7.96
2017-05-29T07:32:10.347Z,10.90
2017-05-29T07:34:37.309Z,8.36
2017-05-29T07:37:04.285Z,8.88
2017-05-29T07:39:31.237Z,8.24
2017-05-29T07:41:58.212Z,8.46
2017-05-29T07:44:25.153Z,8.92
2017-05-29T07:46:52.138Z,8.74
2017-05-29T07:49:19.079Z,9.30
2017-05-29T07:51:46.020Z,9.78
2017-05-29T07:54:12.986Z,8.94
2017-05-29T07:56:39.932Z,8.02
2017-05-29T07:59:06.901Z,8.14
2017-05-29T08:01:33.852Z,7.90
2017-05-29T08:04:00.820Z,8.54
2017-05-29T08:06:27.764Z,9.52
2017-05-29T08:08:54.754Z,10.96
2017-05-29T08:11:21.705Z,8.38
2017-05-29T08:13:48.664Z,9.12
2017-05-29T08:16:15.614Z,8.62
2017-05-29T08:18:42.578Z,9.82
2017-05-29T08:21:09.541Z,10.56
2017-05-29T08:23:36.530Z,8.06
2017-05-29T08:26:03.475Z,9.58
2017-05-29T08:28:30.416Z,9.00
2017-05-29T08:30:57.385Z,10.86
2017-05-29T08:33:24.318Z,12.06
2017-05-29T08:35:51.290Z,8.74
2017-05-29T08:38:18.233Z,8.86
2017-05-29T08:40:45.209Z,16.84
2017-05-29T08:43:12.159Z,10.92
2017-05-29T08:45:39.130Z,9.16
2017-05-29T08:48:06.083Z,9.24
2017-05-29T08:50:33.055Z,19.28
2017-05-29T08:53:00.006Z,9.26
2017-05-29T08:55:26.961Z,9.28
2017-05-29T08:57:53.933Z,8.80
2017-05-29T09:00:20.886Z,28.34
2017-05-29T09:02:47.854Z,13.56
2017-05-29T09:05:14.790Z,9.72
2017-05-29T09:07:41.748Z,8.88
2017-05-29T09:10:08.734Z,11.70
2017-05-29T09:12:35.708Z,20.02
2017-05-29T09:15:02.659Z,17.20
2017-05-29T09:17:29.641Z,12.50
2017-05-29T09:19:56.593Z,13.58
2017-05-29T09:22:23.569Z,10.46
2017-05-29T09:24:50.523Z,11.48
2017-05-29T09:27:17.520Z,9.08
2017-05-29T09:29:44.480Z,11.30
2017-05-29T09:32:11.433Z,8.86
2017-05-29T09:34:38.405Z,7.68
2017-05-29T09:37:05.355Z,10.52
2017-05-29T09:39:32.338Z,8.22
2017-05-29T09:41:59.293Z,7.80
2017-05-29T09:44:26.265Z,8.50
2017-05-29T09:46:53.233Z,7.54
2017-05-29T09:49:20.218Z,7.90
2017-05-29T09:51:47.174Z,8.16
2017-05-29T09:54:14.154Z,7.86
2017-05-29T09:56:41.106Z,9.26
2017-05-29T09:59:08.061Z,9.54
2017-05-29T10:01:35.042Z,7.44
2017-05-29T10:04:01.998Z,8.06
2017-05-29T10:06:28.976Z,7.32
2017-05-29T10:08:55.942Z,8.12
2017-05-29T10:11:22.921Z,7.80
2017-05-29T10:13:49.874Z,8.56
2017-05-29T10:16:16.841Z,7.88
2017-05-29T10:18:43.790Z,8.26
2017-05-29T10:21:10.766Z,8.64
2017-05-29T10:23:37.714Z,7.66
2017-05-29T10:26:04.698Z,8.60
2017-05-29T10:28:31.655Z,7.20
2017-05-29T10:30:58.622Z,7.30
2017-05-29T10:33:25.601Z,9.28
2017-05-29T10:35:52.553Z,7.76
2017-05-29T10:38:19.527Z,8.34
2017-05-29T10:40:46.647Z,7.36
2017-05-29T10:43:13.613Z,7.78
2017-05-29T10:45:40.601Z,8.18
2017-05-29T10:48:07.586Z,8.40
2017-05-29T10:50:34.541Z,10.56
2017-05-29T10:53:01.513Z,8.14
2017-05-29T10:55:28.498Z,7.56
2017-05-29T10:57:55.473Z,7.70
2017-05-29T11:00:22.459Z,8.30
2017-05-29T11:02:49.418Z,7.50
2017-05-29T11:05:16.396Z,8.20
2017-05-29T11:07:43.352Z,8.12
2017-05-29T11:10:10.354Z,7.88
2017-05-29T11:12:37.308Z,8.14
2017-05-29T11:15:04.396Z,7.64
2017-05-29T11:17:31.608Z,7.86
2017-05-29T11:19:58.624Z,8.08
2017-05-29T11:22:25.581Z,9.04
2017-05-29T11:24:52.770Z,9.98
2017-05-29T11:27:19.748Z,9.92
2017-05-29T11:29:46.690Z,9.38
2017-05-29T11:32:13.668Z,8.18
2017-05-29T11:34:40.935Z,8.90
2017-05-29T11:37:07.912Z,8.56
2017-05-29T11:39:36.492Z,8.30
2017-05-29T11:42:03.461Z,8.82
2017-05-29T11:44:30.426Z,8.40
2017-05-29T11:46:57.396Z,8.94
2017-05-29T11:49:24.462Z,8.26
2017-05-29T11:51:51.458Z,8.04
2017-05-29T11:54:18.421Z,9.30
2017-05-29T11:56:45.373Z,10.00
2017-05-29T11:59:12.354Z,8.40
2017-05-29T12:01:39.327Z,9.16
2017-05-29T12:04:06.298Z,8.80
2017-05-29T12:06:33.251Z,8.96
2017-05-29T12:09:00.251Z,8.82
2017-05-29T12:11:27.196Z,8.96
2017-05-29T12:13:54.162Z,9.04
2017-05-29T12:16:21.121Z,9.80
2017-05-29T12:18:48.215Z,9.02
2017-05-29T12:21:15.172Z,8.62
2017-05-29T12:23:42.265Z,9.08
2017-05-29T12:26:09.234Z,9.18
2017-05-29T12:28:36.306Z,8.90
2017-05-29T12:31:03.314Z,8.92
2017-05-29T12:33:30.445Z,10.14
2017-05-29T12:35:57.433Z,10.30
2017-05-29T12:38:24.457Z,8.78
2017-05-29T12:40:51.722Z,9.20
2017-05-29T12:43:18.664Z,8.70
2017-05-29T12:45:45.635Z,7.36
2017-05-29T12:48:12.803Z,7.98
2017-05-29T12:50:39.770Z,8.08
2017-05-29T12:53:06.716Z,7.54
2017-05-29T12:55:33.713Z,7.54
2017-05-29T12:58:00.757Z,7.02
2017-05-29T13:00:27.775Z,8.42
2017-05-29T13:02:55.443Z,9.88
2017-05-29T13:05:22.401Z,7.90
2017-05-29T13:07:49.370Z,7.00
2017-05-29T13:10:16.345Z,6.04
2017-05-29T13:12:43.375Z,6.34
2017-05-29T13:15:10.320Z,6.06
2017-05-29T13:17:37.295Z,7.48
2017-05-29T13:20:04.239Z,6.96
2017-05-29T13:22:31.320Z,6.80
2017-05-29T13:24:58.363Z,5.72
2017-05-29T13:27:25.366Z,6.22
2017-05-29T13:29:52.342Z,6.52
2017-05-29T13:32:19.379Z,6.62
2017-05-29T13:34:46.385Z,6.88
2017-05-29T13:37:13.458Z,6.10
2017-05-29T13:39:40.424Z,6.08
2017-05-29T13:42:07.364Z,6.54
2017-05-29T13:44:34.392Z,7.84
2017-05-29T13:47:01.359Z,8.34
2017-05-29T13:49:28.329Z,8.32
2017-05-29T13:51:55.291Z,7.48
2017-05-29T13:54:22.289Z,12.84
2017-05-29T13:56:49.250Z,8.90
2017-05-29T13:59:16.283Z,7.44
2017-05-29T14:01:43.351Z,5.70
2017-05-29T14:04:10.321Z,11.10
2017-05-29T14:06:37.316Z,9.72
2017-05-29T14:09:04.335Z,6.36
2017-05-29T14:11:31.316Z,9.78
2017-05-29T14:13:58.274Z,10.02
2017-05-29T14:16:25.254Z,7.04
2017-05-29T14:18:52.214Z,7.08
2017-05-29T14:21:19.184Z,6.42
2017-05-29T14:23:46.133Z,6.94
2017-05-29T14:26:13.101Z,6.78
2017-05-29T14:28:40.062Z,7.94
2017-05-29T14:31:07.045Z,6.34
2017-05-29T14:33:34.022Z,7.46
2017-05-29T14:36:00.980Z,7.74
2017-05-29T14:38:27.957Z,7.48
2017-05-29T14:40:55.533Z,8.80
2017-05-29T14:43:22.564Z,11.00
2017-05-29T14:45:49.536Z,12.24
2017-05-29T14:48:16.525Z,7.88
2017-05-29T14:50:43.568Z,7.22
2017-05-29T14:53:10.548Z,6.82
2017-05-29T14:55:37.587Z,6.44
2017-05-29T14:58:04.569Z,6.74
2017-05-29T15:00:31.522Z,6.96
2017-05-29T15:02:58.474Z,8.50
2017-05-29T15:05:25.456Z,9.68
2017-05-29T15:07:52.421Z,14.76
2017-05-29T15:10:19.421Z,10.56
2017-05-29T15:12:46.407Z,7.28
2017-05-29T15:15:13.488Z,6.98
2017-05-29T15:17:40.440Z,7.64
2017-05-29T15:20:07.412Z,8.62
2017-05-29T15:22:34.371Z,8.78
2017-05-29T15:25:01.341Z,9.66
2017-05-29T15:27:28.300Z,9.28
2017-05-29T15:29:55.288Z,9.60
2017-05-29T15:32:22.250Z,10.52
2017-05-29T15:34:49.199Z,10.28
2017-05-29T15:37:16.250Z,10.80
2017-05-29T15:39:43.218Z,10.86
2017-05-29T15:42:10.194Z,9.52
2017-05-29T15:44:37.145Z,10.50
2017-05-29T15:47:04.123Z,10.62
2017-05-29T15:49:31.082Z,10.36
2017-05-29T15:51:58.065Z,10.52
2017-05-29T15:54:25.017Z,10.54
2017-05-29T15:56:51.974Z,10.24
2017-05-29T15:59:18.950Z,11.68
2017-05-29T16:01:46.312Z,10.04
2017-05-29T16:04:13.276Z,10.38
2017-05-29T16:06:40.231Z,11.70
2017-05-29T16:09:07.220Z,11.76
2017-05-29T16:11:34.443Z,11.62
2017-05-29T16:14:01.521Z,11.22
2017-05-29T16:16:28.490Z,11.02
2017-05-29T16:18:55.477Z,10.70
2017-05-29T16:21:22.464Z,10.96
2017-05-29T16:23:49.430Z,9.98
2017-05-29T16:26:16.430Z,11.50
2017-05-29T16:28:43.389Z,11.38
2017-05-29T16:31:10.432Z,11.34
2017-05-29T16:33:37.417Z,11.54
2017-05-29T16:36:04.504Z,11.72
2017-05-29T16:38:31.449Z,11.88
2017-05-29T16:40:58.432Z,12.52
2017-05-29T16:43:25.508Z,12.16
2017-05-29T16:45:52.586Z,12.30
2017-05-29T16:48:19.546Z,11.88
2017-05-29T16:50:46.584Z,12.00
2017-05-29T16:53:13.549Z,11.74
2017-05-29T16:55:40.538Z,13.06
2017-05-29T16:58:07.496Z,13.24
2017-05-29T17:00:34.490Z,12.50
2017-05-29T17:03:01.502Z,12.34
2017-05-29T17:05:28.647Z,11.84
2017-05-29T17:07:55.660Z,14.42
2017-05-29T17:10:22.653Z,12.52
2017-05-29T17:12:49.690Z,12.50
2017-05-29T17:15:16.657Z,11.84
2017-05-29T17:17:43.835Z,11.70
2017-05-29T17:20:10.842Z,11.96
2017-05-29T17:22:37.899Z,13.42
2017-05-29T17:25:04.910Z,11.82
2017-05-29T17:27:31.858Z,12.26
2017-05-29T17:29:58.847Z,10.82
2017-05-29T17:32:25.828Z,11.86
2017-05-29T17:34:52.782Z,11.62
2017-05-29T17:37:19.808Z,11.04
2017-05-29T17:39:46.750Z,12.78
2017-05-29T17:42:13.706Z,11.92
2017-05-29T17:44:40.695Z,11.58
2017-05-29T17:47:07.649Z,11.80
2017-05-29T17:49:34.653Z,11.70
2017-05-29T17:52:01.614Z,12.34
2017-05-29T17:54:28.910Z,11.58
2017-05-29T17:56:55.874Z,12.44
2017-05-29T17:59:22.852Z,12.00
2017-05-29T18:01:49.793Z,10.96
2017-05-29T18:04:16.764Z,12.28
2017-05-29T18:06:43.712Z,12.88
2017-05-29T18:09:10.704Z,15.78
2017-05-29T18:11:37.652Z,16.42
2017-05-29T18:14:04.629Z,14.18
2017-05-29T18:16:31.580Z,15.26
2017-05-29T18:18:58.551Z,15.34
2017-05-29T18:21:25.560Z,16.42
2017-05-29T18:23:52.514Z,14.64
2017-05-29T18:26:19.553Z,14.46
2017-05-29T18:28:46.557Z,14.56
2017-05-29T18:31:13.566Z,14.48
2017-05-29T18:33:40.525Z,15.34
2017-05-29T18:36:07.486Z,13.76
2017-05-29T18:38:34.509Z,13.70
2017-05-29T18:41:01.472Z,13.60
2017-05-29T18:43:28.423Z,13.84
2017-05-29T18:45:55.412Z,17.08
2017-05-29T18:48:22.943Z,13.92
2017-05-29T18:50:49.930Z,14.30
2017-05-29T18:53:16.914Z,13.70
2017-05-29T18:55:43.881Z,13.90
2017-05-29T18:58:10.866Z,13.72
2017-05-29T19:00:37.887Z,15.00
2017-05-29T19:03:04.865Z,13.16
2017-05-29T19:05:31.821Z,15.12
2017-05-29T19:07:58.803Z,13.64
2017-05-29T19:10:25.765Z,15.06
2017-05-29T19:12:52.725Z,14.66
2017-05-29T19:15:19.672Z,15.16
2017-05-29T19:17:46.647Z,15.76
2017-05-29T19:20:13.597Z,15.46
2017-05-29T19:22:40.774Z,18.06
2017-05-29T19:25:07.732Z,14.56
2017-05-29T19:27:34.678Z,15.22
2017-05-29T19:30:01.658Z,15.70
2017-05-29T19:32:28.597Z,15.02
2017-05-29T19:34:55.575Z,15.40
2017-05-29T19:37:22.571Z,16.02
2017-05-29T19:39:49.548Z,15.14
2017-05-29T19:42:16.504Z,15.54
2017-05-29T19:44:43.485Z,15.60
2017-05-29T19:47:10.463Z,15.70
2017-05-29T19:49:37.428Z,15.64
2017-05-29T19:52:04.381Z,16.68
2017-05-29T19:54:31.354Z,17.00
2017-05-29T19:56:58.315Z,14.92
2017-05-29T19:59:25.262Z,14.98
2017-05-29T20:01:52.251Z,15.76
2017-05-29T20:04:19.205Z,16.40
2017-05-29T20:06:46.174Z,15.32
2017-05-29T20:09:13.154Z,15.96
2017-05-29T20:11:40.196Z,16.74
2017-05-29T20:14:07.161Z,16.16
2017-05-29T20:16:34.191Z,15.78
2017-05-29T20:19:01.187Z,15.46
2017-05-29T20:21:28.173Z,15.72
2017-05-29T20:23:55.146Z,16.48
2017-05-29T20:26:22.130Z,16.52
2017-05-29T20:28:49.091Z,16.40
2017-05-29T20:31:16.081Z,17.04
2017-05-29T20:33:44.702Z,16.86
2017-05-29T20:36:12.023Z,16.84
2017-05-29T20:38:39.219Z,15.90
2017-05-29T20:41:06.179Z,18.26
2017-05-29T20:43:33.506Z,16.90
2017-05-29T20:46:00.469Z,17.80
2017-05-29T20:48:27.441Z,17.88
2017-05-29T20:50:54.393Z,17.80
2017-05-29T20:53:21.365Z,18.62
2017-05-29T20:55:48.311Z,17.92
2017-05-29T20:58:15.289Z,17.90
2017-05-29T21:00:42.240Z,17.02
2017-05-29T21:03:09.216Z,18.42
2017-05-29T21:05:36.170Z,18.72
2017-05-29T21:08:03.130Z,18.88
2017-05-29T21:10:30.105Z,18.06
2017-05-29T21:12:57.059Z,20.12
2017-05-29T21:15:24.029Z,18.56
2017-05-29T21:17:50.984Z,17.58
2017-05-29T21:20:17.953Z,19.36
2017-05-29T21:22:44.900Z,18.08
2017-05-29T21:25:11.890Z,18.36
2017-05-29T21:27:38.884Z,17.02
2017-05-29T21:30:05.833Z,17.16
2017-05-29T21:32:32.778Z,18.48
2017-05-29T21:34:59.771Z,17.20
2017-05-29T21:37:26.717Z,16.98
2017-05-29T21:39:53.654Z,15.32
2017-05-29T21:42:20.621Z,14.38
2017-05-29T21:44:47.570Z,15.00
2017-05-29T21:47:14.543Z,15.66
2017-05-29T21:49:41.494Z,15.54
2017-05-29T21:52:08.468Z,15.96
2017-05-29T21:54:35.417Z,14.50
2017-05-29T21:57:02.386Z,13.80
2017-05-29T21:59:29.336Z,14.84
2017-05-29T22:01:56.303Z,14.84
2017-05-29T22:04:23.252Z,14.18
2017-05-29T22:06:50.219Z,15.22
2017-05-29T22:09:17.232Z,14.40
2017-05-29T22:11:44.218Z,14.40
2017-05-29T22:14:11.158Z,14.06
2017-05-29T22:16:38.107Z,14.98
2017-05-29T22:19:05.069Z,14.82
2017-05-29T22:21:32.015Z,16.12
2017-05-29T22:23:58.980Z,15.64
2017-05-29T22:26:25.936Z,14.66
2017-05-29T22:28:52.906Z,15.10
2017-05-29T22:31:19.845Z,14.72
2017-05-29T22:33:46.814Z,14.94
2017-05-29T22:36:13.774Z,14.40
2017-05-29T22:38:40.739Z,14.72
2017-05-29T22:41:07.689Z,13.96
2017-05-29T22:43:34.658Z,13.48
2017-05-29T22:46:01.614Z,15.66
2017-05-29T22:48:28.582Z,15.36
2017-05-29T22:50:55.529Z,18.06
2017-05-29T22:53:22.471Z,15.32
2017-05-29T22:55:49.440Z,14.40
2017-05-29T22:58:16.379Z,12.22
2017-05-29T23:00:43.342Z,11.82
2017-05-29T23:03:10.290Z,12.46
2017-05-29T23:05:37.278Z,9.00
2017-05-29T23:10:57.713Z,16.86
2017-05-29T23:13:24.648Z,10.16
2017-05-29T23:15:51.617Z,25.62
2017-05-29T23:18:18.570Z,24.80
2017-05-29T23:20:45.540Z,21.70
2017-05-29T23:23:12.481Z,20.26
2017-05-29T23:25:39.474Z,22.66
2017-05-29T23:28:09.248Z,14.84
2017-05-29T23:30:36.210Z,13.02
2017-05-29T23:33:03.147Z,13.16
2017-05-29T23:35:30.117Z,10.10
2017-05-29T23:37:57.105Z,9.00
2017-05-29T23:40:24.092Z,12.34
2017-05-29T23:42:51.073Z,17.68
2017-05-29T23:45:18.025Z,11.52
2017-05-29T23:47:45.014Z,12.52
2017-05-29T23:50:11.978Z,8.64
2017-05-29T23:52:38.952Z,12.22
2017-05-29T23:55:05.929Z,12.12
2017-05-29T23:57:32.906Z,12.60
2017-05-29T23:59:59.868Z,11.58
